createdAt,value
2018-09-16T00:00:56.883Z,99274.14
2018-09-16T00:03:25.612Z,99271.21
2018-09-16T00:05:54.090Z,99275.22
2018-09-16T00:08:22.529Z,99268.16
2018-09-16T00:10:51.025Z,99272.19
2018-09-16T00:13:19.541Z,99279.09
2018-09-16T00:15:48.179Z,99270.10
2018-09-16T00:18:16.639Z,99270.46
2018-09-16T00:20:45.177Z,99262.90
2018-09-16T00:23:13.626Z,99259.22
2018-09-16T00:25:42.161Z,99259.32
2018-09-16T00:28:10.589Z,99258.30
2018-09-16T00:30:39.973Z,99263.38
2018-09-16T00:33:08.485Z,99266.70
2018-09-16T00:35:37.019Z,99270.34
2018-09-16T00:38:05.597Z,99268.03
2018-09-16T00:40:34.026Z,99265.45
2018-09-16T00:43:02.513Z,99272.75
2018-09-16T00:45:31.073Z,99265.05
2018-09-16T00:47:59.762Z,99264.53
2018-09-16T00:50:28.245Z,99262.69
2018-09-16T00:52:56.771Z,99258.55
2018-09-16T00:55:25.227Z,99257.21
2018-09-16T00:57:53.713Z,99256.13
2018-09-16T01:00:22.351Z,99255.48
2018-09-16T01:02:50.937Z,99259.48
2018-09-16T01:05:19.441Z,99253.28
2018-09-16T01:07:47.862Z,99252.78
2018-09-16T01:10:16.361Z,99255.59
2018-09-16T01:12:44.814Z,99249.98
2018-09-16T01:15:13.277Z,99244.63
2018-09-16T01:17:41.870Z,99250.32
2018-09-16T01:20:10.315Z,99249.06
2018-09-16T01:22:38.858Z,99241.88
2018-09-16T01:25:07.373Z,99235.19
2018-09-16T01:27:35.833Z,99236.27
2018-09-16T01:30:04.640Z,99234.18
2018-09-16T01:32:33.044Z,99228.83
2018-09-16T01:35:01.435Z,99231.73
2018-09-16T01:37:35.047Z,99229.78
2018-09-16T01:40:03.551Z,99223.52
2018-09-16T01:42:32.195Z,99224.41
2018-09-16T01:45:00.708Z,99228.05
2018-09-16T01:47:29.129Z,99227.80
2018-09-16T01:49:57.717Z,99225.84
2018-09-16T01:52:26.346Z,99223.42
2018-09-16T01:54:54.740Z,99225.25
2018-09-16T01:57:23.241Z,99226.43
2018-09-16T01:59:51.750Z,99214.98
2018-09-16T02:02:20.206Z,99209.63
2018-09-16T02:04:51.387Z,99212.67
2018-09-16T02:07:20.205Z,99210.66
2018-09-16T02:09:48.625Z,99208.34
2018-09-16T02:12:17.084Z,99210.16
2018-09-16T02:14:45.778Z,99210.94
2018-09-16T02:17:14.173Z,99213.26
2018-09-16T02:19:42.629Z,99204.58
2018-09-16T02:22:11.102Z,99198.02
2018-09-16T02:24:39.581Z,99190.81
2018-09-16T02:27:08.061Z,99191.25
2018-09-16T02:29:36.542Z,99185.02
2018-09-16T02:32:05.006Z,99177.35
2018-09-16T02:34:33.501Z,99176.17
2018-09-16T02:37:01.905Z,99179.44
2018-09-16T02:39:30.366Z,99180.77
2018-09-16T02:41:59.232Z,99185.21
2018-09-16T02:44:27.697Z,99187.03
2018-09-16T02:46:56.195Z,99184.20
2018-09-16T02:49:26.853Z,99183.84
2018-09-16T02:51:55.297Z,99186.13
2018-09-16T02:54:23.793Z,99183.09
2018-09-16T02:56:52.297Z,99180.65
2018-09-16T02:59:20.767Z,99174.91
2018-09-16T03:01:49.235Z,99177.33
2018-09-16T03:04:17.749Z,99174.52
2018-09-16T03:06:46.177Z,99169.86
2018-09-16T03:09:14.577Z,99170.25
2018-09-16T03:11:43.189Z,99165.00
2018-09-16T03:14:11.717Z,99160.14
2018-09-16T03:16:40.130Z,99162.81
2018-09-16T03:19:08.618Z,99163.66
2018-09-16T03:21:37.073Z,99171.84
2018-09-16T03:24:05.590Z,99170.61
2018-09-16T03:26:33.966Z,99166.95
2018-09-16T03:29:02.445Z,99172.44
2018-09-16T03:31:33.905Z,99166.59
2018-09-16T03:34:02.377Z,99159.70
2018-09-16T03:36:30.834Z,99164.54
2018-09-16T03:38:59.686Z,99161.48
2018-09-16T03:41:28.094Z,99153.55
2018-09-16T03:43:56.567Z,99153.75
2018-09-16T03:46:25.213Z,99152.73
2018-09-16T03:48:53.590Z,99154.56
2018-09-16T03:51:22.057Z,99142.86
2018-09-16T03:53:50.597Z,99152.41
2018-09-16T03:56:19.019Z,99148.63
2018-09-16T03:58:47.470Z,99153.62
2018-09-16T04:01:15.866Z,99142.66
2018-09-16T04:03:44.325Z,99137.94
2018-09-16T04:06:12.761Z,99143.12
2018-09-16T04:08:41.194Z,99151.53
2018-09-16T04:11:09.719Z,99147.58
2018-09-16T04:13:38.170Z,99152.70
2018-09-16T04:16:06.712Z,99155.16
2018-09-16T04:18:35.150Z,99153.98
2018-09-16T04:21:03.687Z,99164.18
2018-09-16T04:23:43.220Z,99160.14
2018-09-16T04:26:11.666Z,99163.23
2018-09-16T04:28:40.042Z,99159.67
2018-09-16T04:31:08.518Z,99161.78
2018-09-16T04:33:37.135Z,99159.34
2018-09-16T04:36:05.725Z,99160.51
2018-09-16T04:38:34.125Z,99165.10
2018-09-16T04:41:02.526Z,99160.38
2018-09-16T04:43:31.003Z,99158.28
2018-09-16T04:45:59.904Z,99156.45
2018-09-16T04:48:28.426Z,99155.66
2018-09-16T04:50:57.104Z,99152.72
2018-09-16T04:53:25.645Z,99152.23
2018-09-16T04:55:54.330Z,99155.16
2018-09-16T04:58:22.730Z,99155.92
2018-09-16T05:00:51.271Z,99161.48
2018-09-16T05:03:19.702Z,99159.08
2018-09-16T05:05:48.154Z,99166.52
2018-09-16T05:08:16.650Z,99164.46
2018-09-16T05:10:45.101Z,99172.81
2018-09-16T05:13:13.533Z,99175.71
2018-09-16T05:15:41.981Z,99180.47
2018-09-16T05:18:10.472Z,99180.52
2018-09-16T05:20:38.929Z,99188.27
2018-09-16T05:23:07.373Z,99185.37
2018-09-16T05:25:35.798Z,99185.63
2018-09-16T05:28:04.210Z,99183.48
2018-09-16T05:30:32.678Z,99184.63
2018-09-16T05:33:01.160Z,99191.58
2018-09-16T05:35:29.617Z,99189.55
2018-09-16T05:37:58.533Z,99194.67
2018-09-16T05:40:27.253Z,99197.88
2018-09-16T05:42:55.698Z,99195.75
2018-09-16T05:45:24.161Z,99189.09
2018-09-16T05:47:52.641Z,99186.98
2018-09-16T05:50:21.134Z,99189.10
2018-09-16T05:52:49.719Z,99187.55
2018-09-16T05:55:18.090Z,99191.15
2018-09-16T05:57:46.581Z,99195.30
2018-09-16T06:00:19.180Z,99196.06
2018-09-16T06:02:48.333Z,99195.38
2018-09-16T06:05:16.847Z,99197.12
2018-09-16T06:07:45.388Z,99199.72
2018-09-16T06:10:13.812Z,99203.61
2018-09-16T06:12:42.219Z,99207.91
2018-09-16T06:15:10.721Z,99209.55
2018-09-16T06:17:39.125Z,99204.54
2018-09-16T06:20:07.674Z,99209.66
2018-09-16T06:22:36.140Z,99198.72
2018-09-16T06:25:04.618Z,99204.08
2018-09-16T06:27:33.054Z,99201.78
2018-09-16T06:30:01.570Z,99207.99
2018-09-16T06:32:30.050Z,99210.30
2018-09-16T06:34:59.101Z,99209.10
2018-09-16T06:37:28.046Z,99210.56
2018-09-16T06:39:56.532Z,99203.35
2018-09-16T06:42:25.054Z,99202.98
2018-09-16T06:44:53.545Z,99200.64
2018-09-16T06:47:22.046Z,99211.13
2018-09-16T06:49:50.503Z,99214.77
2018-09-16T06:52:18.914Z,99212.03
2018-09-16T06:54:47.474Z,99202.16
2018-09-16T06:57:15.990Z,99202.77
2018-09-16T06:59:44.566Z,99210.54
2018-09-16T07:02:13.050Z,99203.80
2018-09-16T07:04:41.539Z,99209.34
2018-09-16T07:07:10.002Z,99215.27
2018-09-16T07:09:38.501Z,99212.89
2018-09-16T07:12:07.034Z,99213.58
2018-09-16T07:14:35.508Z,99211.62
2018-09-16T07:17:03.944Z,99220.37
2018-09-16T07:19:32.438Z,99225.62
2018-09-16T07:22:00.905Z,99225.95
2018-09-16T07:24:29.446Z,99217.23
2018-09-16T07:26:58.033Z,99215.37
2018-09-16T07:29:26.614Z,99215.40
2018-09-16T07:31:55.034Z,99212.70
2018-09-16T07:34:23.526Z,99210.34
2018-09-16T07:36:51.995Z,99216.20
2018-09-16T07:39:20.473Z,99217.38
2018-09-16T07:41:48.949Z,99223.63
2018-09-16T07:44:17.520Z,99219.69
2018-09-16T07:46:46.005Z,99224.88
2018-09-16T07:49:14.477Z,99224.84
2018-09-16T07:51:42.898Z,99223.72
2018-09-16T07:54:11.342Z,99223.33
2018-09-16T07:56:39.873Z,99222.73
2018-09-16T07:59:08.341Z,99226.28
2018-09-16T08:01:36.813Z,99221.88
2018-09-16T08:04:05.237Z,99217.56
2018-09-16T08:06:33.673Z,99218.33
2018-09-16T08:09:02.129Z,99219.92
2018-09-16T08:11:30.541Z,99216.73
2018-09-16T08:13:59.389Z,99216.86
2018-09-16T08:16:28.061Z,99212.41
2018-09-16T08:18:56.550Z,99211.25
2018-09-16T08:21:25.170Z,99213.40
2018-09-16T08:23:53.610Z,99206.33
2018-09-16T08:26:22.042Z,99197.80
2018-09-16T08:28:50.493Z,99196.13
2018-09-16T08:31:18.930Z,99196.57
2018-09-16T08:33:47.557Z,99195.98
2018-09-16T08:36:16.265Z,99198.39
2018-09-16T08:38:44.758Z,99192.48
2018-09-16T08:41:13.293Z,99189.13
2018-09-16T08:43:41.701Z,99184.97
2018-09-16T08:46:10.214Z,99178.19
2018-09-16T08:48:38.862Z,99181.06
2018-09-16T08:51:08.178Z,99179.20
2018-09-16T08:53:36.855Z,99174.77
2018-09-16T08:56:05.423Z,99173.58
2018-09-16T08:58:33.935Z,99170.87
2018-09-16T09:01:02.334Z,99169.70
2018-09-16T09:03:30.781Z,99168.50
2018-09-16T09:05:59.878Z,99168.52
2018-09-16T09:08:28.265Z,99163.53
2018-09-16T09:10:57.018Z,99161.11
2018-09-16T09:13:25.609Z,99161.55
2018-09-16T09:15:54.044Z,99163.26
2018-09-16T09:18:22.489Z,99160.86
2018-09-16T09:20:50.950Z,99153.98
2018-09-16T09:23:19.654Z,99150.46
2018-09-16T09:25:48.146Z,99143.55
2018-09-16T09:28:16.734Z,99142.80
2018-09-16T09:30:45.274Z,99137.59
2018-09-16T09:33:13.718Z,99140.50
2018-09-16T09:35:42.208Z,99134.94
2018-09-16T09:38:10.734Z,99135.95
2018-09-16T09:40:39.315Z,99141.09
2018-09-16T09:43:07.925Z,99146.27
2018-09-16T09:45:36.429Z,99142.82
2018-09-16T09:48:04.913Z,99140.42
2018-09-16T09:50:33.371Z,99129.78
2018-09-16T09:53:01.926Z,99124.88
2018-09-16T09:55:30.368Z,99117.62
2018-09-16T09:57:58.937Z,99111.70
2018-09-16T10:00:32.774Z,99103.68
2018-09-16T10:03:01.239Z,99108.28
2018-09-16T10:05:29.702Z,99117.83
2018-09-16T10:07:58.550Z,99117.90
2018-09-16T10:10:26.994Z,99111.06
2018-09-16T10:12:55.685Z,99111.79
2018-09-16T10:15:24.133Z,99105.95
2018-09-16T10:17:52.627Z,99103.67
2018-09-16T10:20:21.164Z,99094.41
2018-09-16T10:22:49.594Z,99093.10
2018-09-16T10:25:18.057Z,99087.66
2018-09-16T10:27:46.670Z,99080.64
2018-09-16T10:30:15.705Z,99070.72
2018-09-16T10:32:44.182Z,99064.25
2018-09-16T10:35:12.570Z,99073.11
2018-09-16T10:37:41.026Z,99069.70
2018-09-16T10:40:09.457Z,99066.58
2018-09-16T10:42:37.949Z,99065.97
2018-09-16T10:45:06.411Z,99061.60
2018-09-16T10:47:34.917Z,99061.01
2018-09-16T10:50:03.452Z,99058.38
2018-09-16T10:52:31.898Z,99052.08
2018-09-16T10:55:00.550Z,99048.48
2018-09-16T10:57:29.217Z,99040.98
2018-09-16T10:59:57.754Z,99043.02
2018-09-16T11:02:26.394Z,99040.66
2018-09-16T11:04:55.101Z,99040.69
2018-09-16T11:07:23.858Z,99044.64
2018-09-16T11:09:52.271Z,99047.53
2018-09-16T11:12:21.246Z,99035.09
2018-09-16T11:14:49.913Z,99042.48
2018-09-16T11:17:18.313Z,99040.37
2018-09-16T11:19:46.882Z,99037.80
2018-09-16T11:22:15.475Z,99032.75
2018-09-16T11:24:44.021Z,99030.72
2018-09-16T11:27:12.861Z,99038.38
2018-09-16T11:29:41.393Z,99029.33
2018-09-16T11:32:09.858Z,99033.55
2018-09-16T11:34:38.389Z,99028.69
2018-09-16T11:37:06.910Z,99027.95
2018-09-16T11:39:35.428Z,99026.96
2018-09-16T11:42:03.881Z,99017.30
2018-09-16T11:44:32.353Z,99019.77
2018-09-16T11:47:00.843Z,99016.91
2018-09-16T11:49:29.382Z,99014.96
2018-09-16T11:51:58.157Z,99015.58
2018-09-16T11:54:26.893Z,99021.57
2018-09-16T11:56:55.306Z,99015.44
2018-09-16T11:59:23.952Z,99010.06
2018-09-16T12:01:52.458Z,99003.14
2018-09-16T12:04:20.977Z,99008.63
2018-09-16T12:06:49.547Z,99010.52
2018-09-16T12:09:18.066Z,98996.50
2018-09-16T12:11:46.485Z,98999.47
2018-09-16T12:14:15.030Z,99000.49
2018-09-16T12:16:43.493Z,98992.37
2018-09-16T12:19:12.004Z,98991.62
2018-09-16T12:21:40.380Z,98980.58
2018-09-16T12:24:08.910Z,98979.40
2018-09-16T12:26:37.327Z,98977.47
2018-09-16T12:29:05.737Z,98966.94
2018-09-16T12:31:34.205Z,98966.97
2018-09-16T12:34:02.750Z,98959.37
2018-09-16T12:36:31.201Z,98962.41
2018-09-16T12:38:59.841Z,98961.27
2018-09-16T12:41:28.350Z,98956.22
2018-09-16T12:43:56.809Z,98957.13
2018-09-16T12:46:25.364Z,98955.06
2018-09-16T12:48:53.776Z,98955.34
2018-09-16T12:51:22.280Z,98950.19
2018-09-16T12:53:50.761Z,98946.95
2018-09-16T12:56:19.309Z,98945.56
2018-09-16T12:58:47.821Z,98943.14
2018-09-16T13:01:16.341Z,98940.98
2018-09-16T13:03:45.042Z,98942.67
2018-09-16T13:06:13.561Z,98941.63
2018-09-16T13:08:42.313Z,98932.51
2018-09-16T13:11:10.910Z,98930.35
2018-09-16T13:13:39.679Z,98923.50
2018-09-16T13:16:08.405Z,98923.03
2018-09-16T13:18:36.913Z,98928.35
2018-09-16T13:21:05.842Z,98922.34
2018-09-16T13:23:34.279Z,98921.87
2018-09-16T13:26:03.016Z,98918.55
2018-09-16T13:28:31.521Z,98913.57
2018-09-16T13:31:00.305Z,98918.98
2018-09-16T13:33:28.798Z,98914.95
2018-09-16T13:35:57.325Z,98913.17
2018-09-16T13:38:26.026Z,98911.40
2018-09-16T13:40:54.454Z,98909.66
2018-09-16T13:43:23.009Z,98901.10
2018-09-16T13:45:51.502Z,98902.84
2018-09-16T13:48:19.985Z,98898.84
2018-09-16T13:50:48.502Z,98889.51
2018-09-16T13:53:16.966Z,98894.58
2018-09-16T13:55:45.486Z,98889.50
2018-09-16T13:58:13.949Z,98885.39
2018-09-16T14:00:42.476Z,98885.58
2018-09-16T14:03:11.009Z,98880.87
2018-09-16T14:05:39.668Z,98879.21
2018-09-16T14:08:08.141Z,98882.59
2018-09-16T14:10:36.681Z,98878.50
2018-09-16T14:13:05.117Z,98883.00
2018-09-16T14:15:33.659Z,98882.66
2018-09-16T14:18:02.081Z,98883.34
2018-09-16T14:20:30.562Z,98877.73
2018-09-16T14:22:59.161Z,98883.14
2018-09-16T14:25:27.903Z,98878.81
2018-09-16T14:27:56.395Z,98874.75
2018-09-16T14:30:24.927Z,98873.70
2018-09-16T14:32:53.384Z,98867.78
2018-09-16T14:35:21.918Z,98867.55
2018-09-16T14:37:50.473Z,98873.92
2018-09-16T14:40:18.917Z,98869.28
2018-09-16T14:42:47.550Z,98866.91
2018-09-16T14:45:15.961Z,98869.38
2018-09-16T14:47:44.547Z,98866.28
2018-09-16T14:50:13.023Z,98862.58
2018-09-16T14:52:41.666Z,98862.64
2018-09-16T14:55:10.218Z,98861.63
2018-09-16T14:57:38.818Z,98856.81
2018-09-16T15:00:07.269Z,98851.79
2018-09-16T15:02:35.803Z,98853.88
2018-09-16T15:05:04.389Z,98852.66
2018-09-16T15:07:32.851Z,98852.23
2018-09-16T15:10:01.510Z,98853.37
2018-09-16T15:12:30.066Z,98857.66
2018-09-16T15:14:58.894Z,98853.68
2018-09-16T15:17:27.429Z,98854.09
2018-09-16T15:19:57.086Z,98854.34
2018-09-16T15:22:26.553Z,98856.47
2018-09-16T15:24:55.070Z,98851.89
2018-09-16T15:27:23.567Z,98849.27
2018-09-16T15:29:52.326Z,98851.70
2018-09-16T15:32:22.415Z,98850.36
2018-09-16T15:34:50.854Z,98842.67
2018-09-16T15:37:19.433Z,98853.31
2018-09-16T15:39:49.142Z,98849.73
2018-09-16T15:42:17.812Z,98848.16
2018-09-16T15:44:46.334Z,98849.85
2018-09-16T15:47:14.782Z,98851.89
2018-09-16T15:49:43.697Z,98857.16
2018-09-16T15:52:12.382Z,98849.84
2018-09-16T15:54:40.982Z,98852.11
2018-09-16T15:57:09.564Z,98847.52
2018-09-16T15:59:38.262Z,98847.60
2018-09-16T16:02:06.757Z,98842.33
2018-09-16T16:04:35.334Z,98845.26
2018-09-16T16:07:03.786Z,98847.80
2018-09-16T16:09:32.501Z,98858.36
2018-09-16T16:12:01.955Z,98856.36
2018-09-16T16:14:30.574Z,98853.62
2018-09-16T16:16:59.291Z,98849.15
2018-09-16T16:19:27.962Z,98850.43
2018-09-16T16:21:56.617Z,98846.17
2018-09-16T16:24:25.123Z,98841.69
2018-09-16T16:26:53.762Z,98849.41
2018-09-16T16:29:22.425Z,98848.92
2018-09-16T16:31:50.846Z,98854.91
2018-09-16T16:34:19.594Z,98858.42
2018-09-16T16:36:48.009Z,98857.59
2018-09-16T16:39:16.594Z,98860.95
2018-09-16T16:41:45.169Z,98863.55
2018-09-16T16:44:13.814Z,98865.26
2018-09-16T16:46:42.761Z,98869.39
2018-09-16T16:49:11.233Z,98862.27
2018-09-16T16:51:39.785Z,98859.34
2018-09-16T16:54:08.409Z,98861.53
2018-09-16T16:56:37.037Z,98870.47
2018-09-16T16:59:05.601Z,98874.80
2018-09-16T17:01:34.086Z,98878.02
2018-09-16T17:04:02.714Z,98873.86
2018-09-16T17:06:31.210Z,98876.97
2018-09-16T17:09:00.078Z,98875.72
2018-09-16T17:11:28.856Z,98873.95
2018-09-16T17:13:57.349Z,98877.72
2018-09-16T17:16:25.806Z,98874.88
2018-09-16T17:18:54.516Z,98882.48
2018-09-16T17:21:22.927Z,98887.52
2018-09-16T17:23:51.570Z,98881.31
2018-09-16T17:26:20.137Z,98888.73
2018-09-16T17:28:48.725Z,98883.25
2018-09-16T17:31:17.133Z,98884.92
2018-09-16T17:33:45.741Z,98885.31
2018-09-16T17:36:14.342Z,98887.77
2018-09-16T17:38:42.901Z,98888.87
2018-09-16T17:41:11.309Z,98889.63
2018-09-16T17:43:39.845Z,98892.52
2018-09-16T17:46:08.269Z,98895.88
2018-09-16T17:48:36.737Z,98897.17
2018-09-16T17:51:05.342Z,98888.64
2018-09-16T17:53:33.785Z,98892.48
2018-09-16T17:56:02.397Z,98898.66
2018-09-16T17:58:30.902Z,98892.30
2018-09-16T18:00:59.774Z,98900.79
2018-09-16T18:03:28.379Z,98903.06
2018-09-16T18:05:57.018Z,98905.91
2018-09-16T18:08:30.830Z,98904.82
2018-09-16T18:10:59.277Z,98912.76
2018-09-16T18:13:27.849Z,98914.41
2018-09-16T18:15:56.351Z,98918.18
2018-09-16T18:18:24.857Z,98924.19
2018-09-16T18:20:53.383Z,98925.13
2018-09-16T18:23:21.961Z,98927.05
2018-09-16T18:25:50.462Z,98923.92
2018-09-16T18:28:18.964Z,98931.45
2018-09-16T18:30:47.395Z,98933.16
2018-09-16T18:33:15.887Z,98936.08
2018-09-16T18:35:44.412Z,98930.88
2018-09-16T18:38:12.913Z,98932.52
2018-09-16T18:40:41.446Z,98936.13
2018-09-16T18:43:09.924Z,98942.30
2018-09-16T18:45:38.646Z,98939.29
2018-09-16T18:48:07.371Z,98951.44
2018-09-16T18:50:36.055Z,98950.94
2018-09-16T18:53:04.537Z,98948.68
2018-09-16T18:55:32.950Z,98956.59
2018-09-16T18:58:01.497Z,98953.28
2018-09-16T19:00:30.026Z,98955.69
2018-09-16T19:02:58.833Z,98956.08
2018-09-16T19:05:27.389Z,98959.19
2018-09-16T19:07:55.848Z,98963.28
2018-09-16T19:10:24.318Z,98964.14
2018-09-16T19:12:52.784Z,98965.23
2018-09-16T19:15:21.222Z,98966.24
2018-09-16T19:17:49.705Z,98970.78
2018-09-16T19:20:18.130Z,98965.83
2018-09-16T19:22:46.637Z,98966.71
2018-09-16T19:25:15.117Z,98970.78
2018-09-16T19:27:43.612Z,98974.52
2018-09-16T19:30:12.115Z,98984.72
2018-09-16T19:32:40.561Z,98970.47
2018-09-16T19:35:09.038Z,98981.85
2018-09-16T19:37:37.513Z,98987.49
2018-09-16T19:40:06.077Z,98986.30
2018-09-16T19:42:34.534Z,98991.25
2018-09-16T19:45:02.961Z,98992.41
2018-09-16T19:47:31.441Z,98995.69
2018-09-16T19:50:00.126Z,98995.55
2018-09-16T19:52:28.715Z,98997.31
2018-09-16T19:54:57.173Z,98997.52
2018-09-16T19:57:25.642Z,98997.74
2018-09-16T19:59:54.163Z,98995.22
2018-09-16T20:02:22.654Z,98995.73
2018-09-16T20:04:51.282Z,98994.58
2018-09-16T20:07:19.753Z,98990.47
2018-09-16T20:09:48.170Z,98995.59
2018-09-16T20:12:16.685Z,98991.20
2018-09-16T20:14:45.085Z,98990.52
2018-09-16T20:17:13.552Z,98990.19
2018-09-16T20:19:41.997Z,98996.98
2018-09-16T20:22:10.692Z,98992.44
2018-09-16T20:24:39.278Z,98990.75
2018-09-16T20:27:07.862Z,99001.56
2018-09-16T20:29:36.357Z,99000.05
2018-09-16T20:32:05.335Z,98997.01
2018-09-16T20:34:33.801Z,98999.55
2018-09-16T20:37:02.357Z,99000.90
2018-09-16T20:39:30.897Z,98998.70
2018-09-16T20:41:59.460Z,99001.72
2018-09-16T20:44:27.954Z,99004.09
2018-09-16T20:46:56.494Z,99004.05
2018-09-16T20:49:24.904Z,99008.61
2018-09-16T20:51:53.387Z,99009.81
2018-09-16T20:54:22.049Z,99010.80
2018-09-16T20:56:50.449Z,99008.44
2018-09-16T20:59:18.967Z,99008.58
2018-09-16T21:01:47.437Z,99015.15
2018-09-16T21:04:15.938Z,99016.49
2018-09-16T21:06:44.369Z,99011.72
2018-09-16T21:09:13.751Z,99019.45
2018-09-16T21:11:42.145Z,99016.05
2018-09-16T21:14:10.649Z,99022.48
2018-09-16T21:16:39.116Z,99017.73
2018-09-16T21:19:07.646Z,99020.77
2018-09-16T21:21:36.073Z,99012.95
2018-09-16T21:24:04.643Z,99014.09
2018-09-16T21:26:33.053Z,99016.17
2018-09-16T21:29:01.473Z,99008.86
2018-09-16T21:31:29.905Z,99012.22
2018-09-16T21:33:58.564Z,99005.89
2018-09-16T21:36:27.578Z,99008.41
2018-09-16T21:38:56.086Z,99011.63
2018-09-16T21:41:24.545Z,99017.40
2018-09-16T21:43:53.103Z,99014.65
2018-09-16T21:46:21.494Z,99018.28
2018-09-16T21:48:49.911Z,99020.61
2018-09-16T21:51:18.868Z,99024.33
2018-09-16T21:53:47.543Z,99018.09
2018-09-16T21:56:15.993Z,99010.13
2018-09-16T21:58:44.838Z,99015.85
2018-09-16T22:01:13.341Z,99022.04
2018-09-16T22:03:41.805Z,99017.48
2018-09-16T22:06:10.453Z,99011.93
2018-09-16T22:08:38.918Z,99010.39
2018-09-16T22:11:07.377Z,99010.39
2018-09-16T22:13:35.881Z,99008.98
2018-09-16T22:16:04.373Z,99004.04
2018-09-16T22:18:32.898Z,99006.22
2018-09-16T22:21:01.441Z,99010.80
2018-09-16T22:23:29.862Z,99012.48
2018-09-16T22:25:58.539Z,99015.92
2018-09-16T22:28:27.050Z,99014.75
2018-09-16T22:30:55.562Z,99028.58
2018-09-16T22:33:24.206Z,99016.05
2018-09-16T22:35:52.762Z,99021.03
2018-09-16T22:38:21.176Z,99027.34
2018-09-16T22:40:49.665Z,99025.00
2018-09-16T22:43:18.329Z,99036.02
2018-09-16T22:45:46.845Z,99040.25
2018-09-16T22:48:15.289Z,99036.44
2018-09-16T22:50:43.825Z,99031.99
2018-09-16T22:53:12.273Z,99028.62
2018-09-16T22:55:40.761Z,99029.77
2018-09-16T22:58:09.218Z,99028.31
2018-09-16T23:00:37.786Z,99030.84
2018-09-16T23:03:06.263Z,99033.14
2018-09-16T23:05:34.746Z,99033.45
2018-09-16T23:08:03.290Z,99034.76
2018-09-16T23:10:31.756Z,99035.20
2018-09-16T23:13:00.434Z,99034.36
2018-09-16T23:15:29.114Z,99030.24
2018-09-16T23:17:57.657Z,99028.69
2018-09-16T23:20:26.139Z,99027.48
2018-09-16T23:22:54.565Z,99029.20
2018-09-16T23:25:23.055Z,99029.50
2018-09-16T23:27:51.541Z,99027.74
2018-09-16T23:30:19.993Z,99032.83
2018-09-16T23:32:48.507Z,99038.53
2018-09-16T23:35:16.989Z,99036.78
2018-09-16T23:37:45.517Z,99035.95
2018-09-16T23:40:14.010Z,99037.17
2018-09-16T23:42:42.529Z,99037.60
2018-09-16T23:45:11.000Z,99036.84
2018-09-16T23:47:39.486Z,99043.20
2018-09-16T23:50:08.114Z,99046.39
2018-09-16T23:52:37.535Z,99054.27
2018-09-16T23:55:06.986Z,99049.22
2018-09-16T23:57:35.441Z,99046.90
